Time;durP1;ratioP1;P1;durP2;ratioP2;P2;SDS_P1;SDS_P2;PMS_P1;PMS_P2;Temp;Humidity;BMP_temperature;BMP_pressure;BME280_temperature;BME280_humidity;BME280_pressure;Samples;Min_cycle;Max_cycle;Signal;HPM_P1;HPM_P2
2023/02/27 00:00:54;;;;;;;;;14.00;12.67;;;;;;;;5005204;28;9963;-81
2023/02/27 00:03:21;;;;;;;;;16.33;16.33;;;;;;;;5008426;28;8914;-80
2023/02/27 00:05:49;;;;;;;;;14.67;14.67;;;;;;;;5009914;28;8876;-81
2023/02/27 00:08:17;;;;;;;;;20.33;15.67;;;;;;;;5023526;28;8873;-81
2023/02/27 00:10:44;;;;;;;;;21.67;17.00;;;;;;;;5019258;28;8857;-81
2023/02/27 00:13:11;;;;;;;;;17.33;17.33;;;;;;;;5017911;28;8879;-81
2023/02/27 00:15:40;;;;;;;;;12.00;12.00;;;;;;;;5017574;28;8871;-81
2023/02/27 00:18:08;;;;;;;;;6.00;6.00;;;;;;;;5006678;28;8940;-80
2023/02/27 00:20:36;;;;;;;;;11.33;11.00;;;;;;;;5006634;28;8854;-80
2023/02/27 00:23:04;;;;;;;;;14.33;12.00;;;;;;;;5023338;28;8953;-80
2023/02/27 00:25:31;;;;;;;;;16.00;11.00;;;;;;;;5018948;28;8860;-80
2023/02/27 00:27:59;;;;;;;;;12.00;12.00;;;;;;;;5023292;28;8861;-80
2023/02/27 00:30:27;;;;;;;;;14.67;14.67;;;;;;;;5010015;28;8946;-81
2023/02/27 00:32:56;;;;;;;;;11.33;11.33;;;;;;;;5026235;28;8865;-80
2023/02/27 00:35:24;;;;;;;;;8.67;8.67;;;;;;;;5026155;28;8860;-80
2023/02/27 00:37:51;;;;;;;;;14.00;10.00;;;;;;;;5004242;28;8873;-79
2023/02/27 00:40:19;;;;;;;;;14.00;8.67;;;;;;;;5005166;28;8853;-80
2023/02/27 00:42:47;;;;;;;;;7.00;7.00;;;;;;;;5009777;28;8879;-80
2023/02/27 00:45:15;;;;;;;;;14.33;13.00;;;;;;;;5005353;28;8922;-81
2023/02/27 00:47:43;;;;;;;;;10.67;10.67;;;;;;;;5022686;28;8884;-82
2023/02/27 00:50:14;;;;;;;;;9.33;9.33;;;;;;;;5022564;28;8877;-81
2023/02/27 00:52:42;;;;;;;;;9.00;8.33;;;;;;;;5018766;28;8944;-81
2023/02/27 00:55:10;;;;;;;;;7.67;7.67;;;;;;;;5004347;28;8865;-80
2023/02/27 00:57:39;;;;;;;;;9.33;8.00;;;;;;;;5009487;28;8865;-81
2023/02/27 01:00:08;;;;;;;;;8.00;8.00;;;;;;;;5022070;28;8890;-80
2023/02/27 01:02:35;;;;;;;;;5.00;5.00;;;;;;;;5021430;28;8860;-81
2023/02/27 01:05:03;;;;;;;;;9.67;7.67;;;;;;;;5026218;28;8838;-81
2023/02/27 01:07:32;;;;;;;;;9.00;7.00;;;;;;;;5027314;28;8902;-81
2023/02/27 01:09:59;;;;;;;;;4.33;4.33;;;;;;;;5024117;28;8836;-80
2023/02/27 01:12:27;;;;;;;;;11.00;9.00;;;;;;;;5009035;28;8853;-80
2023/02/27 01:14:54;;;;;;;;;8.00;5.00;;;;;;;;5004992;28;10054;-79
2023/02/27 01:17:22;;;;;;;;;7.00;7.00;;;;;;;;5021375;28;8868;-80
2023/02/27 01:19:49;;;;;;;;;6.00;6.00;;;;;;;;5010827;28;8901;-80
2023/02/27 01:22:17;;;;;;;;;6.67;6.67;;;;;;;;4987357;28;8872;-80
2023/02/27 01:24:46;;;;;;;;;8.00;8.00;;;;;;;;5008683;28;8876;-80
2023/02/27 01:27:13;;;;;;;;;9.00;9.00;;;;;;;;5025369;28;9639;-80
2023/02/27 01:29:41;;;;;;;;;15.33;15.33;;;;;;;;5007562;28;8882;-80
2023/02/27 01:32:09;;;;;;;;;14.00;14.00;;;;;;;;5006526;28;8857;-80
2023/02/27 01:34:36;;;;;;;;;8.33;7.33;;;;;;;;5019635;28;8874;-82
2023/02/27 01:37:05;;;;;;;;;10.00;10.00;;;;;;;;5012097;28;8951;-82
2023/02/27 01:39:32;;;;;;;;;8.33;7.00;;;;;;;;5025312;28;8848;-81
2023/02/27 01:42:02;;;;;;;;;8.00;8.00;;;;;;;;5023817;28;8889;-81
2023/02/27 01:44:31;;;;;;;;;16.67;10.33;;;;;;;;5018850;28;8907;-85
2023/02/27 01:46:59;;;;;;;;;9.67;9.33;;;;;;;;5020926;28;8843;-81
2023/02/27 01:49:29;;;;;;;;;8.33;8.33;;;;;;;;5028032;28;8839;-82
2023/02/27 01:52:00;;;;;;;;;10.67;10.67;;;;;;;;5027005;28;8869;-80
2023/02/27 01:54:30;;;;;;;;;9.00;9.00;;;;;;;;5031164;28;8863;-80
2023/02/27 01:56:57;;;;;;;;;11.67;9.00;;;;;;;;5025734;28;8847;-83
2023/02/27 01:59:26;;;;;;;;;8.00;7.00;;;;;;;;5008654;28;8864;-82
2023/02/27 02:01:54;;;;;;;;;8.00;8.00;;;;;;;;4988542;28;8872;-81
2023/02/27 02:04:26;;;;;;;;;9.00;6.67;;;;;;;;4996764;28;8856;-80
2023/02/27 02:07:00;;;;;;;;;5.00;2.67;;;;;;;;4998293;28;9594;-80
2023/02/27 02:09:29;;;;;;;;;9.33;9.33;;;;;;;;4981498;28;8868;-80
2023/02/27 02:11:58;;;;;;;;;7.00;7.00;;;;;;;;4999212;28;8914;-81
2023/02/27 02:14:27;;;;;;;;;8.67;8.33;;;;;;;;4997538;28;8862;-80
2023/02/27 02:17:06;;;;;;;;;9.00;7.33;;;;;;;;4998012;28;8876;-81
2023/02/27 02:20:07;;;;;;;;;5.33;5.00;;;;;;;;4981703;28;8883;-80
2023/02/27 02:23:22;;;;;;;;;7.00;7.00;;;;;;;;4983405;28;8903;-80
2023/02/27 02:26:26;;;;;;;;;4.00;4.00;;;;;;;;4980424;28;8872;-80
2023/02/27 02:29:29;;;;;;;;;8.33;7.00;;;;;;;;4989602;28;8884;-80
2023/02/27 02:32:33;;;;;;;;;13.00;10.00;;;;;;;;5001062;28;8883;-81
2023/02/27 02:35:40;;;;;;;;;6.00;6.00;;;;;;;;4998695;28;8866;-81
2023/02/27 02:38:33;;;;;;;;;10.67;8.33;;;;;;;;4985016;28;8911;-80
2023/02/27 02:41:06;;;;;;;;;4.67;4.67;;;;;;;;5001572;28;8897;-81
2023/02/27 02:43:40;;;;;;;;;4.33;4.33;;;;;;;;4987458;28;8921;-83
2023/02/27 02:46:12;;;;;;;;;11.33;8.33;;;;;;;;5003576;28;8862;-80
2023/02/27 02:48:44;;;;;;;;;9.33;8.00;;;;;;;;5002585;28;8864;-81
2023/02/27 02:51:17;;;;;;;;;9.00;7.00;;;;;;;;4999879;28;8888;-81
2023/02/27 02:53:52;;;;;;;;;9.00;7.33;;;;;;;;4987083;28;9649;-81
2023/02/27 02:56:24;;;;;;;;;8.67;8.33;;;;;;;;4986006;28;8890;-80
2023/02/27 02:58:57;;;;;;;;;9.00;9.00;;;;;;;;4984990;28;8875;-80
2023/02/27 03:01:28;;;;;;;;;8.00;6.67;;;;;;;;5002514;28;9266;-80
2023/02/27 03:03:58;;;;;;;;;17.00;11.00;;;;;;;;4991439;28;8909;-81
2023/02/27 03:06:29;;;;;;;;;8.67;6.00;;;;;;;;5002808;28;8890;-80
2023/02/27 03:09:03;;;;;;;;;4.00;4.00;;;;;;;;5002917;28;8898;-81
2023/02/27 03:11:34;;;;;;;;;9.00;8.67;;;;;;;;4985554;28;9618;-81
2023/02/27 03:14:06;;;;;;;;;8.67;8.67;;;;;;;;5002620;28;8875;-81
2023/02/27 03:16:39;;;;;;;;;8.00;5.00;;;;;;;;5000297;28;8855;-81
2023/02/27 03:19:12;;;;;;;;;8.00;8.00;;;;;;;;5004402;28;9698;-81
2023/02/27 03:21:43;;;;;;;;;10.33;6.00;;;;;;;;5002078;28;8864;-81
2023/02/27 03:24:18;;;;;;;;;9.33;7.33;;;;;;;;4985128;28;8865;-81
2023/02/27 03:26:48;;;;;;;;;10.67;8.00;;;;;;;;5003110;28;8871;-81
2023/02/27 03:29:19;;;;;;;;;12.00;9.00;;;;;;;;4987744;28;8854;-80
2023/02/27 03:31:51;;;;;;;;;9.00;6.00;;;;;;;;5003384;28;8917;-81
2023/02/27 03:34:22;;;;;;;;;10.67;10.67;;;;;;;;4988149;28;8934;-81
2023/02/27 03:36:54;;;;;;;;;8.00;6.67;;;;;;;;5001234;28;8907;-80
2023/02/27 03:39:29;;;;;;;;;8.00;6.33;;;;;;;;4985367;28;8867;-81
2023/02/27 03:42:03;;;;;;;;;6.00;6.00;;;;;;;;5003028;28;8887;-81
2023/02/27 03:44:36;;;;;;;;;10.67;8.00;;;;;;;;4973472;28;8881;-80
2023/02/27 03:47:03;;;;;;;;;7.00;7.00;;;;;;;;5001437;28;8868;-81
2023/02/27 03:49:31;;;;;;;;;9.00;9.00;;;;;;;;4985231;28;8859;-81
2023/02/27 03:51:58;;;;;;;;;10.00;8.67;;;;;;;;4999975;28;8888;-81
2023/02/27 03:54:31;;;;;;;;;8.00;8.00;;;;;;;;4988533;28;8848;-80
2023/02/27 03:57:02;;;;;;;;;8.67;5.67;;;;;;;;5003457;28;8995;-80
2023/02/27 03:59:30;;;;;;;;;8.00;5.00;;;;;;;;5002224;28;8906;-80
2023/02/27 04:01:58;;;;;;;;;9.00;9.00;;;;;;;;5002982;28;8917;-80
2023/02/27 04:04:30;;;;;;;;;5.67;5.67;;;;;;;;5004344;28;9603;-80
2023/02/27 04:10:10;;;;;;;;;3.67;3.67;;;;;;;;5013020;28;8935;-80
2023/02/27 04:12:51;;;;;;;;;4.00;4.00;;;;;;;;5010940;28;8886;-82
2023/02/27 04:15:25;;;;;;;;;9.33;7.00;;;;;;;;5009478;28;8865;-81
2023/02/27 04:17:59;;;;;;;;;7.00;7.00;;;;;;;;5010290;28;8867;-80
2023/02/27 04:20:43;;;;;;;;;9.67;6.33;;;;;;;;5008352;28;8876;-80
2023/02/27 04:23:13;;;;;;;;;10.00;9.33;;;;;;;;5007010;28;8849;-80
2023/02/27 04:25:52;;;;;;;;;7.33;6.67;;;;;;;;5010578;28;8862;-80
2023/02/27 04:28:25;;;;;;;;;6.00;6.00;;;;;;;;4996370;28;8945;-81
2023/02/27 04:31:00;;;;;;;;;7.33;7.33;;;;;;;;5007985;28;8847;-80
2023/02/27 04:33:33;;;;;;;;;4.00;4.00;;;;;;;;4997835;28;8857;-80
2023/02/27 04:36:07;;;;;;;;;8.00;8.00;;;;;;;;5000129;28;8879;-81
2023/02/27 04:38:39;;;;;;;;;5.00;5.00;;;;;;;;4995103;28;8856;-83
2023/02/27 04:41:12;;;;;;;;;6.00;6.00;;;;;;;;5007531;28;8851;-80
2023/02/27 04:43:41;;;;;;;;;8.00;8.00;;;;;;;;5010866;28;8878;-80
2023/02/27 04:46:13;;;;;;;;;7.00;7.00;;;;;;;;5007527;28;8859;-80
2023/02/27 04:48:47;;;;;;;;;8.67;8.67;;;;;;;;4991928;28;9694;-80
2023/02/27 04:51:17;;;;;;;;;5.00;5.00;;;;;;;;5007461;28;8864;-81
2023/02/27 04:53:49;;;;;;;;;4.00;4.00;;;;;;;;5005675;28;8907;-80
2023/02/27 04:56:22;;;;;;;;;6.00;6.00;;;;;;;;5004509;28;8842;-81
2023/02/27 04:58:54;;;;;;;;;6.33;6.33;;;;;;;;4992389;28;9635;-81
2023/02/27 05:01:26;;;;;;;;;7.00;7.00;;;;;;;;5003284;28;8863;-81
2023/02/27 05:03:55;;;;;;;;;5.67;5.67;;;;;;;;5000770;28;8913;-81
2023/02/27 05:06:30;;;;;;;;;8.00;8.00;;;;;;;;4992214;28;9723;-81
2023/02/27 05:09:01;;;;;;;;;5.00;5.00;;;;;;;;5005665;28;8875;-81
2023/02/27 05:11:35;;;;;;;;;5.00;5.00;;;;;;;;5002493;28;8851;-80
2023/02/27 05:14:06;;;;;;;;;6.33;5.00;;;;;;;;4990089;28;8892;-81
2023/02/27 05:16:39;;;;;;;;;5.00;5.00;;;;;;;;5012302;28;8902;-81
2023/02/27 05:19:07;;;;;;;;;5.00;5.00;;;;;;;;5004032;28;9586;-81
2023/02/27 05:21:39;;;;;;;;;7.00;7.00;;;;;;;;4991113;28;9644;-80
2023/02/27 05:24:33;;;;;;;;;0.67;0.67;;;;;;;;4993788;28;9298;-81
2023/02/27 05:27:10;;;;;;;;;6.33;6.33;;;;;;;;5003175;28;9651;-81
2023/02/27 05:29:45;;;;;;;;;5.67;5.67;;;;;;;;4997094;28;8874;-81
2023/02/27 05:32:30;;;;;;;;;8.67;8.67;;;;;;;;5005167;28;8901;-79
2023/02/27 05:35:05;;;;;;;;;10.33;10.33;;;;;;;;5010686;28;9736;-81
2023/02/27 05:37:36;;;;;;;;;10.33;9.67;;;;;;;;5005168;28;8819;-79
2023/02/27 05:40:07;;;;;;;;;9.00;9.00;;;;;;;;5008965;28;8827;-80
2023/02/27 05:42:40;;;;;;;;;5.00;5.00;;;;;;;;5011422;28;8950;-82
2023/02/27 05:45:12;;;;;;;;;7.00;7.00;;;;;;;;4996022;28;8981;-81
2023/02/27 05:47:44;;;;;;;;;17.00;17.00;;;;;;;;5010808;28;8980;-81
2023/02/27 05:50:14;;;;;;;;;9.67;9.33;;;;;;;;5014882;28;8879;-82
2023/02/27 05:52:44;;;;;;;;;11.67;11.67;;;;;;;;5003848;28;8897;-82
2023/02/27 05:55:17;;;;;;;;;9.00;9.00;;;;;;;;5002107;28;8906;-82
2023/02/27 05:57:49;;;;;;;;;4.33;4.33;;;;;;;;5008807;28;8883;-82
2023/02/27 06:00:21;;;;;;;;;11.33;11.33;;;;;;;;4999043;28;8845;-82
2023/02/27 06:02:49;;;;;;;;;9.00;9.00;;;;;;;;5012057;28;8868;-82
2023/02/27 06:05:18;;;;;;;;;13.00;11.67;;;;;;;;5001494;28;8880;-82
2023/02/27 06:07:46;;;;;;;;;11.00;11.00;;;;;;;;5001925;28;8863;-81
2023/02/27 06:10:16;;;;;;;;;12.00;12.00;;;;;;;;4995851;28;8851;-82
2023/02/27 06:12:45;;;;;;;;;17.33;17.33;;;;;;;;5008298;28;8847;-84
2023/02/27 06:15:13;;;;;;;;;11.67;11.67;;;;;;;;5010030;28;8963;-82
2023/02/27 06:17:40;;;;;;;;;5.67;5.67;;;;;;;;5003765;28;8871;-83
2023/02/27 06:20:11;;;;;;;;;11.00;11.00;;;;;;;;4989004;28;8863;-83
2023/02/27 06:22:38;;;;;;;;;10.33;10.33;;;;;;;;4972616;28;8871;-77
2023/02/27 06:25:08;;;;;;;;;9.00;9.00;;;;;;;;5014716;28;8856;-77
2023/02/27 06:27:35;;;;;;;;;11.67;11.67;;;;;;;;4985898;28;8945;-78
2023/02/27 06:30:06;;;;;;;;;10.33;8.67;;;;;;;;4999078;28;8844;-82
2023/02/27 06:32:33;;;;;;;;;8.00;8.00;;;;;;;;5001452;28;8879;-74
2023/02/27 06:35:00;;;;;;;;;9.67;9.00;;;;;;;;4999710;28;8860;-79
2023/02/27 06:37:28;;;;;;;;;15.33;15.33;;;;;;;;5002262;28;9005;-79
2023/02/27 06:39:55;;;;;;;;;4.67;4.67;;;;;;;;5003172;28;8908;-77
2023/02/27 06:42:22;;;;;;;;;7.33;7.33;;;;;;;;4982453;28;8902;-78
2023/02/27 06:44:50;;;;;;;;;15.00;13.33;;;;;;;;4967658;28;8868;-79
2023/02/27 06:47:19;;;;;;;;;5.00;5.00;;;;;;;;4950172;28;8964;-79
2023/02/27 06:49:47;;;;;;;;;13.67;13.67;;;;;;;;4984614;28;8859;-77
2023/02/27 06:52:14;;;;;;;;;9.33;9.33;;;;;;;;4997924;28;8878;-74
2023/02/27 06:54:41;;;;;;;;;10.00;10.00;;;;;;;;4999630;28;9654;-74
2023/02/27 06:57:09;;;;;;;;;9.33;9.33;;;;;;;;4998444;28;8843;-76
2023/02/27 06:59:36;;;;;;;;;10.00;10.00;;;;;;;;4981162;28;8874;-74
2023/02/27 07:02:03;;;;;;;;;9.00;9.00;;;;;;;;4983956;28;8867;-76
2023/02/27 07:04:32;;;;;;;;;9.67;8.00;;;;;;;;5018777;28;8870;-73
2023/02/27 07:06:59;;;;;;;;;13.00;10.67;;;;;;;;5020207;28;9352;-73
2023/02/27 07:09:27;;;;;;;;;9.00;8.00;;;;;;;;5019180;28;8876;-72
2023/02/27 07:11:57;;;;;;;;;12.00;12.00;;;;;;;;5018154;28;8833;-72
2023/02/27 07:14:25;;;;;;;;;13.00;13.00;;;;;;;;5018191;28;8860;-73
2023/02/27 07:16:54;;;;;;;;;13.33;13.33;;;;;;;;5019552;28;8884;-75
2023/02/27 07:19:22;;;;;;;;;8.00;8.00;;;;;;;;5018345;28;8983;-73
2023/02/27 07:21:51;;;;;;;;;20.67;20.33;;;;;;;;5003034;28;8942;-74
2023/02/27 07:24:19;;;;;;;;;12.00;12.00;;;;;;;;4988701;28;8864;-75
2023/02/27 07:26:46;;;;;;;;;18.67;18.67;;;;;;;;5023803;28;8868;-77
2023/02/27 07:29:14;;;;;;;;;10.33;10.33;;;;;;;;5020390;28;9709;-73
2023/02/27 07:31:41;;;;;;;;;14.00;14.00;;;;;;;;5020746;28;8852;-72
2023/02/27 07:34:10;;;;;;;;;10.00;10.00;;;;;;;;5004268;28;8852;-71
2023/02/27 07:36:38;;;;;;;;;7.00;7.00;;;;;;;;5003468;28;8915;-72
2023/02/27 07:39:09;;;;;;;;;10.67;10.67;;;;;;;;4987841;28;8875;-71
2023/02/27 07:41:37;;;;;;;;;9.33;9.33;;;;;;;;5004475;28;8844;-70
2023/02/27 07:44:05;;;;;;;;;7.00;7.00;;;;;;;;5021237;28;8832;-72
2023/02/27 07:46:33;;;;;;;;;13.00;13.00;;;;;;;;5006904;28;8926;-72
2023/02/27 07:49:00;;;;;;;;;6.00;6.00;;;;;;;;5005623;28;8844;-71
2023/02/27 07:51:27;;;;;;;;;12.33;12.33;;;;;;;;5021021;28;8881;-72
2023/02/27 07:53:57;;;;;;;;;11.67;11.67;;;;;;;;5009319;28;8861;-72
2023/02/27 07:56:26;;;;;;;;;15.00;13.00;;;;;;;;5023175;28;8911;-71
2023/02/27 07:58:53;;;;;;;;;8.00;8.00;;;;;;;;5019398;28;8876;-72
2023/02/27 08:01:21;;;;;;;;;11.67;11.67;;;;;;;;5020904;28;8846;-72
2023/02/27 08:03:48;;;;;;;;;12.00;10.33;;;;;;;;5022070;28;8873;-71
2023/02/27 08:06:15;;;;;;;;;11.33;10.00;;;;;;;;5020563;28;8833;-72
2023/02/27 08:08:42;;;;;;;;;12.33;11.00;;;;;;;;5024322;28;8864;-72
2023/02/27 08:11:10;;;;;;;;;9.67;9.67;;;;;;;;5004318;28;8853;-71
2023/02/27 08:13:39;;;;;;;;;12.67;11.67;;;;;;;;5025949;28;8833;-71
2023/02/27 08:16:08;;;;;;;;;12.33;12.33;;;;;;;;5003976;28;8837;-72
2023/02/27 08:18:36;;;;;;;;;7.00;7.00;;;;;;;;5023032;28;8845;-72
2023/02/27 08:21:04;;;;;;;;;7.33;7.00;;;;;;;;5021949;28;8868;-72
2023/02/27 08:23:33;;;;;;;;;12.00;9.67;;;;;;;;5021382;28;8839;-72
2023/02/27 08:26:01;;;;;;;;;11.00;11.00;;;;;;;;5020524;28;8963;-72
2023/02/27 08:28:29;;;;;;;;;17.00;17.00;;;;;;;;5017375;28;8853;-72
2023/02/27 08:30:59;;;;;;;;;6.33;6.33;;;;;;;;5023181;28;8865;-72
2023/02/27 08:33:26;;;;;;;;;13.00;13.00;;;;;;;;5001034;28;9018;-74
2023/02/27 08:35:54;;;;;;;;;8.67;7.00;;;;;;;;5020343;28;8904;-73
2023/02/27 08:38:22;;;;;;;;;14.00;12.33;;;;;;;;5001597;28;8892;-73
2023/02/27 08:40:52;;;;;;;;;16.00;13.33;;;;;;;;5021150;28;8907;-73
2023/02/27 08:43:20;;;;;;;;;9.00;9.00;;;;;;;;5020239;28;8924;-73
2023/02/27 08:45:48;;;;;;;;;8.67;7.33;;;;;;;;5019620;28;8849;-73
2023/02/27 08:48:17;;;;;;;;;6.33;6.33;;;;;;;;5021609;28;8848;-72
2023/02/27 08:50:46;;;;;;;;;7.33;7.33;;;;;;;;5004283;28;9750;-72
2023/02/27 08:53:14;;;;;;;;;11.33;8.67;;;;;;;;5021006;28;8836;-73
2023/02/27 08:55:42;;;;;;;;;7.33;5.67;;;;;;;;5019233;28;8872;-73
2023/02/27 08:58:10;;;;;;;;;11.00;8.00;;;;;;;;5020698;28;8872;-73
2023/02/27 09:00:37;;;;;;;;;9.00;9.00;;;;;;;;5020365;28;8867;-72
2023/02/27 09:03:05;;;;;;;;;6.67;6.67;;;;;;;;5019133;28;8868;-72
2023/02/27 09:05:36;;;;;;;;;1.00;1.00;;;;;;;;5008936;28;8844;-73
2023/02/27 09:08:04;;;;;;;;;9.67;8.00;;;;;;;;5003429;28;11512;-73
2023/02/27 09:10:31;;;;;;;;;8.00;5.00;;;;;;;;5009312;28;8857;-72
2023/02/27 09:12:59;;;;;;;;;6.00;6.00;;;;;;;;5007018;28;11508;-72
2023/02/27 09:15:26;;;;;;;;;11.00;8.33;;;;;;;;5004876;28;8867;-71
2023/02/27 09:17:55;;;;;;;;;5.00;5.00;;;;;;;;5005954;28;12480;-72
2023/02/27 09:20:22;;;;;;;;;3.00;1.33;;;;;;;;4990174;28;8862;-73
2023/02/27 09:22:51;;;;;;;;;6.00;6.00;;;;;;;;5008915;28;12370;-73
2023/02/27 09:25:19;;;;;;;;;4.33;4.33;;;;;;;;4995500;28;11511;-72
2023/02/27 09:27:47;;;;;;;;;5.33;5.33;;;;;;;;4992662;28;11517;-72
2023/02/27 09:30:14;;;;;;;;;6.00;6.00;;;;;;;;5002585;28;11505;-72
2023/02/27 09:32:42;;;;;;;;;5.75;5.75;;;;;;;;5006537;28;12418;-72
2023/02/27 09:35:10;;;;;;;;;6.00;6.00;;;;;;;;5003643;28;11507;-73
2023/02/27 09:37:38;;;;;;;;;2.00;2.00;;;;;;;;5004979;28;11478;-73
2023/02/27 09:40:07;;;;;;;;;5.00;5.00;;;;;;;;4995112;28;11521;-70
2023/02/27 09:42:40;;;;;;;;;5.50;5.50;;;;;;;;4992094;28;11543;-71
2023/02/27 09:45:13;;;;;;;;;3.50;3.50;;;;;;;;5009628;28;11498;-71
2023/02/27 09:47:44;;;;;;;;;9.00;9.00;;;;;;;;5001332;28;11566;-71
2023/02/27 09:50:34;;;;;;;;;3.00;3.00;;;;;;;;5001646;28;11527;-72
2023/02/27 09:53:01;;;;;;;;;7.00;5.50;;;;;;;;5007684;28;11506;-71
2023/02/27 09:55:33;;;;;;;;;2.50;2.50;;;;;;;;4991853;28;11527;-71
2023/02/27 09:58:06;;;;;;;;;8.75;3.00;;;;;;;;5004355;28;11531;-71
2023/02/27 10:00:47;;;;;;;;;9.00;4.00;;;;;;;;5003835;28;11531;-71
2023/02/27 10:03:29;;;;;;;;;6.00;6.00;;;;;;;;4998197;28;11659;-71
2023/02/27 10:06:10;;;;;;;;;6.50;5.25;;;;;;;;4999827;28;11649;-71
2023/02/27 10:08:43;;;;;;;;;4.00;4.00;;;;;;;;4997841;28;11573;-71
2023/02/27 10:11:15;;;;;;;;;5.00;5.00;;;;;;;;5000465;28;11495;-71
2023/02/27 10:13:50;;;;;;;;;10.00;7.25;;;;;;;;4998386;28;11584;-71
2023/02/27 10:16:19;;;;;;;;;3.00;3.00;;;;;;;;4998962;28;11577;-70
2023/02/27 10:18:53;;;;;;;;;2.00;2.00;;;;;;;;4996497;28;11652;-71
2023/02/27 10:21:25;;;;;;;;;3.00;3.00;;;;;;;;4998134;28;12562;-71
2023/02/27 10:23:55;;;;;;;;;5.50;4.50;;;;;;;;5001948;28;11665;-72
2023/02/27 10:26:26;;;;;;;;;7.00;3.00;;;;;;;;4998915;28;11585;-72
2023/02/27 10:28:54;;;;;;;;;2.00;2.00;;;;;;;;4997170;28;11562;-71
2023/02/27 10:31:24;;;;;;;;;3.00;3.00;;;;;;;;4996852;28;12206;-71
2023/02/27 10:33:53;;;;;;;;;2.00;2.00;;;;;;;;4980912;28;11586;-72
2023/02/27 10:36:22;;;;;;;;;5.00;5.00;;;;;;;;4997731;28;11884;-73
2023/02/27 10:38:52;;;;;;;;;1.00;1.00;;;;;;;;4981613;28;11596;-74
2023/02/27 10:41:21;;;;;;;;;2.25;2.25;;;;;;;;4999463;28;11619;-73
2023/02/27 10:43:50;;;;;;;;;4.25;2.00;;;;;;;;4998904;28;11566;-74
2023/02/27 10:46:22;;;;;;;;;1.50;1.50;;;;;;;;4994418;28;11567;-72
2023/02/27 10:48:49;;;;;;;;;2.25;2.25;;;;;;;;5002226;28;11543;-72
2023/02/27 10:51:23;;;;;;;;;0.75;0.75;;;;;;;;4987103;28;11567;-69
2023/02/27 10:53:52;;;;;;;;;4.00;4.00;;;;;;;;5005247;28;11572;-74
2023/02/27 10:56:25;;;;;;;;;4.25;4.25;;;;;;;;4997774;28;11709;-73
2023/02/27 10:59:05;;;;;;;;;5.00;5.00;;;;;;;;4999866;28;11593;-74
2023/02/27 11:01:43;;;;;;;;;1.50;1.50;;;;;;;;5001104;28;11569;-72
2023/02/27 11:04:12;;;;;;;;;5.75;5.75;;;;;;;;5018476;28;12391;-75
2023/02/27 11:06:41;;;;;;;;;3.50;3.00;;;;;;;;5032186;28;11538;-74
2023/02/27 11:09:13;;;;;;;;;4.25;4.25;;;;;;;;5031089;28;11630;-74
2023/02/27 11:11:41;;;;;;;;;2.75;2.75;;;;;;;;5020098;28;11572;-74
2023/02/27 11:14:28;;;;;;;;;4.00;4.00;;;;;;;;5023155;28;11566;-75
2023/02/27 11:16:58;;;;;;;;;6.00;3.75;;;;;;;;5033655;28;11495;-75
2023/02/27 11:19:30;;;;;;;;;2.50;2.50;;;;;;;;5021229;28;11467;-75
2023/02/27 11:22:02;;;;;;;;;2.00;2.00;;;;;;;;5018245;28;11541;-75
2023/02/27 11:24:30;;;;;;;;;3.00;3.00;;;;;;;;5027529;28;11496;-78
2023/02/27 11:27:02;;;;;;;;;6.00;3.50;;;;;;;;5025268;28;12330;-76
2023/02/27 11:29:31;;;;;;;;;2.75;2.75;;;;;;;;5029833;28;11622;-76
2023/02/27 11:32:02;;;;;;;;;8.75;8.75;;;;;;;;5021038;28;11560;-76
2023/02/27 11:34:31;;;;;;;;;5.50;5.50;;;;;;;;5023260;28;11530;-76
2023/02/27 11:37:02;;;;;;;;;9.25;7.25;;;;;;;;5006879;28;11510;-76
2023/02/27 11:39:34;;;;;;;;;2.25;2.25;;;;;;;;5024269;28;11635;-76
2023/02/27 11:42:11;;;;;;;;;2.75;2.75;;;;;;;;5022486;28;12308;-76
2023/02/27 11:44:55;;;;;;;;;2.50;2.50;;;;;;;;5024399;28;12332;-76
2023/02/27 11:47:27;;;;;;;;;14.75;13.75;;;;;;;;5023167;28;11468;-76
2023/02/27 11:50:28;;;;;;;;;9.00;8.00;;;;;;;;5025124;28;11505;-76
2023/02/27 11:53:07;;;;;;;;;8.00;6.25;;;;;;;;5005057;28;11571;-73
2023/02/27 11:55:35;;;;;;;;;3.25;2.00;;;;;;;;5034573;28;11453;-76
2023/02/27 11:58:09;;;;;;;;;8.25;8.25;;;;;;;;5028453;28;11449;-76
2023/02/27 12:00:41;;;;;;;;;3.00;3.00;;;;;;;;5029478;28;11456;-75
2023/02/27 12:06:00;;;;;;;;;6.00;3.75;;;;;;;;3248493;26;11464;-66
2023/02/27 12:08:34;;;;;;;;;7.50;6.50;;;;;;;;5014334;28;12208;-67
2023/02/27 12:11:04;;;;;;;;;6.75;2.00;;;;;;;;4796783;23;11819;-74
2023/02/27 12:13:35;;;;;;;;;2.00;2.00;;;;;;;;4974403;28;12377;-72
2023/02/27 12:16:13;;;;;;;;;2.00;2.00;;;;;;;;4978496;28;11539;-69
2023/02/27 12:18:46;;;;;;;;;5.75;5.75;;;;;;;;4980961;28;11517;-71
2023/02/27 12:21:17;;;;;;;;;7.50;7.50;;;;;;;;4977221;28;11597;-69
2023/02/27 12:23:48;;;;;;;;;4.00;4.00;;;;;;;;4971432;28;11533;-76
2023/02/27 12:26:22;;;;;;;;;5.25;5.25;;;;;;;;4954778;28;11516;-74
2023/02/27 12:28:55;;;;;;;;;6.50;4.00;;;;;;;;4972706;28;11564;-73
2023/02/27 12:31:43;;;;;;;;;2.00;2.00;;;;;;;;4976135;28;11512;-70
2023/02/27 12:34:28;;;;;;;;;3.50;3.50;;;;;;;;4965790;28;11195;-72
2023/02/27 12:37:01;;;;;;;;;2.00;2.00;;;;;;;;4973714;28;11288;-72
2023/02/27 12:39:29;;;;;;;;;0.25;0.25;;;;;;;;4972557;28;12350;-74
2023/02/27 12:42:23;;;;;;;;;2.25;2.25;;;;;;;;4973987;28;11200;-78
2023/02/27 12:45:04;;;;;;;;;4.75;3.75;;;;;;;;4975168;28;11271;-77
2023/02/27 12:47:39;;;;;;;;;2.50;2.50;;;;;;;;4971805;28;12136;-78
2023/02/27 12:50:11;;;;;;;;;4.75;4.75;;;;;;;;4977145;28;11911;-79
2023/02/27 12:52:49;;;;;;;;;5.00;5.00;;;;;;;;4975864;28;11285;-76
2023/02/27 12:55:18;;;;;;;;;5.50;5.50;;;;;;;;4972703;28;11533;-77
2023/02/27 12:58:18;;;;;;;;;5.75;5.75;;;;;;;;4974821;28;11013;-79
2023/02/27 13:00:48;;;;;;;;;4.00;4.00;;;;;;;;4974235;28;11756;-79
2023/02/27 13:03:22;;;;;;;;;6.75;6.75;;;;;;;;4972651;28;11007;-79
2023/02/27 13:05:58;;;;;;;;;4.00;4.00;;;;;;;;4968869;28;11128;-78
2023/02/27 13:09:02;;;;;;;;;4.00;4.00;;;;;;;;4971301;28;11057;-78
2023/02/27 13:11:37;;;;;;;;;4.25;4.25;;;;;;;;4970887;28;11028;-80
2023/02/27 13:14:11;;;;;;;;;3.00;3.00;;;;;;;;4971215;28;11017;-79
2023/02/27 13:16:43;;;;;;;;;5.00;4.00;;;;;;;;4977214;28;10944;-82
2023/02/27 13:19:16;;;;;;;;;3.00;3.00;;;;;;;;4974751;28;11129;-83
2023/02/27 13:21:50;;;;;;;;;3.00;3.00;;;;;;;;4973894;28;10874;-82
2023/02/27 13:24:31;;;;;;;;;3.00;3.00;;;;;;;;4969865;28;10987;-82
2023/02/27 13:27:04;;;;;;;;;3.00;3.00;;;;;;;;4972746;28;10946;-78
2023/02/27 13:29:37;;;;;;;;;2.75;2.75;;;;;;;;4972465;28;10983;-78
2023/02/27 13:32:19;;;;;;;;;2.00;2.00;;;;;;;;4963987;28;10870;-78
2023/02/27 13:34:55;;;;;;;;;4.00;4.00;;;;;;;;4972654;28;10941;-77
2023/02/27 13:37:22;;;;;;;;;3.00;3.00;;;;;;;;4973969;28;11030;-77
2023/02/27 13:39:58;;;;;;;;;6.25;5.50;;;;;;;;4972334;28;11138;-79
2023/02/27 13:42:56;;;;;;;;;5.75;5.75;;;;;;;;4971770;28;11360;-78
2023/02/27 13:45:46;;;;;;;;;7.25;4.50;;;;;;;;4973797;28;11172;-82
2023/02/27 13:48:45;;;;;;;;;4.25;4.25;;;;;;;;4973043;28;11120;-81
2023/02/27 13:51:46;;;;;;;;;6.50;4.50;;;;;;;;4968635;28;11128;-81
2023/02/27 13:54:32;;;;;;;;;3.75;3.75;;;;;;;;4975703;28;11101;-80
2023/02/27 13:57:21;;;;;;;;;7.75;7.75;;;;;;;;4969814;28;11936;-76
2023/02/27 13:59:54;;;;;;;;;4.75;3.50;;;;;;;;4973187;28;11491;-76
2023/02/27 14:02:50;;;;;;;;;1.75;1.75;;;;;;;;4970039;28;11103;-77
2023/02/27 14:05:28;;;;;;;;;3.50;3.25;;;;;;;;4959377;28;11783;-77
2023/02/27 14:08:14;;;;;;;;;6.25;4.50;;;;;;;;4940328;28;11221;-76
2023/02/27 14:10:52;;;;;;;;;6.00;6.00;;;;;;;;4969104;28;11269;-74
2023/02/27 14:13:57;;;;;;;;;5.00;4.00;;;;;;;;4953323;28;11186;-76
2023/02/27 14:16:57;;;;;;;;;7.00;7.00;;;;;;;;4953490;28;10976;-74
2023/02/27 14:19:48;;;;;;;;;4.00;4.00;;;;;;;;4954763;28;11986;-78
2023/02/27 14:22:44;;;;;;;;;6.75;6.75;;;;;;;;4933648;28;11305;-80
2023/02/27 14:25:24;;;;;;;;;4.00;4.00;;;;;;;;4954769;28;11060;-78
2023/02/27 14:27:54;;;;;;;;;6.00;6.00;;;;;;;;4952976;28;11196;-77
2023/02/27 14:30:42;;;;;;;;;3.00;3.00;;;;;;;;4949468;28;11439;-78
2023/02/27 14:33:23;;;;;;;;;4.00;4.00;;;;;;;;4956034;28;11253;-78
2023/02/27 14:35:59;;;;;;;;;5.00;3.00;;;;;;;;4955428;28;11253;-77
2023/02/27 14:38:28;;;;;;;;;6.00;6.00;;;;;;;;4939033;28;11208;-77
2023/02/27 14:41:08;;;;;;;;;7.25;7.25;;;;;;;;4956476;28;11633;-78
2023/02/27 14:43:39;;;;;;;;;7.50;7.50;;;;;;;;4955985;28;11405;-76
2023/02/27 14:46:13;;;;;;;;;9.75;9.75;;;;;;;;4948793;28;11936;-78
2023/02/27 14:48:41;;;;;;;;;15.00;12.00;;;;;;;;4940210;28;11205;-77
2023/02/27 14:51:08;;;;;;;;;14.50;14.50;;;;;;;;4938848;28;11531;-77
2023/02/27 14:53:37;;;;;;;;;9.50;9.50;;;;;;;;4955380;28;12416;-78
2023/02/27 14:56:15;;;;;;;;;12.00;11.25;;;;;;;;4936565;28;11550;-78
2023/02/27 14:58:51;;;;;;;;;10.00;8.50;;;;;;;;4956207;28;11495;-78
2023/02/27 15:01:18;;;;;;;;;7.75;7.75;;;;;;;;4956689;28;11295;-78
2023/02/27 15:03:50;;;;;;;;;4.00;4.00;;;;;;;;4954974;28;12123;-78
2023/02/27 15:06:19;;;;;;;;;7.00;5.00;;;;;;;;4955581;28;11138;-78
2023/02/27 15:08:49;;;;;;;;;9.50;9.50;;;;;;;;4954654;28;11181;-77
2023/02/27 15:11:21;;;;;;;;;4.50;4.50;;;;;;;;4941372;28;11609;-80
2023/02/27 15:13:51;;;;;;;;;9.00;7.25;;;;;;;;4979540;28;11191;-77
2023/02/27 15:16:29;;;;;;;;;11.00;9.00;;;;;;;;4974110;28;11223;-77
2023/02/27 15:18:59;;;;;;;;;9.00;9.00;;;;;;;;4974003;28;11532;-78
2023/02/27 15:21:28;;;;;;;;;7.25;5.25;;;;;;;;4977634;28;11213;-79
2023/02/27 15:23:56;;;;;;;;;8.00;8.00;;;;;;;;4978373;28;11090;-77